Grandeur Of The Seas — C6SE3 — position and weather

sailwx.info

Track history (hours):
 
Tides and Currents Weather Stations Pressure Air Temp Water Temp Dewpoint Dewpoint Depression Visibility Wind Speed Wind Dir Waves Ship Positions

Grandeur Of The Seas

Operator: Royal Caribbean Cruises Ltd

Last reported at 2014-Jul-25 22:27 UTC. Time now 2014-Jul-26 01:05 UTC.
Position N 38°48' W 076°25'.

Type: Passenger vessel. MMSI: 311315000.

Date/timePositionNaut miles runAvg speedWind from/ knotsBaromVisibWave heightAir tempDewpointWater temp
2014-Jul-25 22:27N 38°48' W 076°25'1617.6
2014-Jul-25 21:34N 39°03' W 076°23'1312.6
2014-Jul-25 20:34N 39°14' W 076°32'4 3.6
2014-Jul-25 19:32N 39°16' W 076°36'0 0.0
2014-Jul-25 18:32N 39°16' W 076°36'0 0.0
2014-Jul-25 17:32N 39°16' W 076°36'0 0.0
2014-Jul-25 16:32N 39°16' W 076°36'0 0.0
2014-Jul-25 15:32N 39°16' W 076°36'0 0.0
2014-Jul-25 14:29N 39°16' W 076°36'0 0.0
2014-Jul-25 13:32N 39°16' W 076°36'0 0.0
2014-Jul-25 12:32N 39°16' W 076°36'0 0.0
2014-Jul-25 11:29N 39°16' W 076°36'1 0.7
2014-Jul-25 10:34N 39°15' W 076°35'8 8.1
2014-Jul-25 09:33N 39°11' W 076°27'1212.4
2014-Jul-25 08:33N 38°59' W 076°23'1615.4
2014-Jul-25 07:33N 38°43' W 076°26'9215.3
2014-Jul-25 01:30N 37°12' W 076°09'1516.0
2014-Jul-25 00:33N 36°59' W 075°60'1111.2
2014-Jul-24 23:33N 36°51' W 075°49'27512.2
2014-Jul-24 01:00N 34°54' W 070°42'9814.1 210 / 261012.010.8 2.525.524.128.0
2014-Jul-23 18:00N 34°12' W 068°54'14813.4 220 / 161016.0 5.4 27.027.025.0
2014-Jul-23 07:00N 33°12' W 066°12'8412.0 260 / 111017.527.0 2.526.024.6
2014-Jul-23 00:00N 32°36' W 064°42'   280 / 131019.0 2.2 26.525.128.0
2014-Jul-19 06:32N 36°48' W 075°45'1616.2
2014-Jul-19 05:34N 36°58' W 075°60'1816.6
2014-Jul-19 04:28N 37°16' W 076°08'2118.1
2014-Jul-19 03:18N 37°37' W 076°05'1418.2
2014-Jul-19 02:31N 37°50' W 076°10'5718.8
2014-Jul-18 23:27N 38°46' W 076°25'1718.8
2014-Jul-18 22:33N 39°03' W 076°23'1212.4
2014-Jul-18 21:34N 39°13' W 076°32'4 3.4
2014-Jul-18 20:28N 39°16' W 076°36'0 0.0
2014-Jul-18 19:29N 39°16' W 076°36'0 0.0
2014-Jul-18 18:31N 39°16' W 076°36'0 0.0
2014-Jul-18 17:31N 39°16' W 076°36'0 0.0
2014-Jul-18 16:28N 39°16' W 076°36'0 0.0
2014-Jul-18 15:31N 39°16' W 076°36'0 0.0
2014-Jul-18 14:28N 39°16' W 076°36'0 0.0
2014-Jul-18 13:28N 39°16' W 076°36'0 0.0
2014-Jul-18 12:31N 39°16' W 076°36'0 0.0
2014-Jul-18 11:31N 39°16' W 076°36'0 0.3
2014-Jul-18 10:33N 39°16' W 076°36'9 8.9
2014-Jul-18 09:34N 39°11' W 076°26'1313.1
2014-Jul-18 08:33N 38°58' W 076°24'1414.0
2014-Jul-18 07:33N 38°44' W 076°26'9515.8
2014-Jul-18 01:32N 37°10' W 076°09'1615.9
2014-Jul-18 00:33N 36°57' W 075°58'1714.2
2014-Jul-17 23:19N 36°45' W 075°42'20513.3
2014-Jul-17 08:00N 33°24' W 076°30'9914.1 100 / 71007.810.8 2.524.021.130.0
2014-Jul-17 01:00N 32°06' W 077°42'32814.9 190 / 191008.0 5.4 1.026.024.630.0
2014-Jul-16 03:00N 26°48' W 079°12'4816.1 190 / 131012.010.8 27.025.030.0
2014-Jul-16 00:00N 26°12' W 078°36'   180 / 61012.010.8 27.025.630.0
Track history (hours):
 
Tides and Currents Weather Stations Pressure Air Temp Water Temp Dewpoint Dewpoint Depression Visibility Wind Speed Wind Dir Waves Ship Positions

Grandeur Of The Seas

Operator: Royal Caribbean Cruises Ltd

Last reported at 2014-Jul-25 22:27 UTC. Time now 2014-Jul-26 01:05 UTC.
Position N 38°48' W 076°25'.

Type: Passenger vessel. MMSI: 311315000.

Date/timePositionNaut miles runAvg speedWind from/ knotsBaromVisibWave heightAir tempDewpointWater temp
2014-Jul-25 22:27N 38°48' W 076°25'1617.6
2014-Jul-25 21:34N 39°03' W 076°23'1312.6
2014-Jul-25 20:34N 39°14' W 076°32'4 3.6
2014-Jul-25 19:32N 39°16' W 076°36'0 0.0
2014-Jul-25 18:32N 39°16' W 076°36'0 0.0
2014-Jul-25 17:32N 39°16' W 076°36'0 0.0
2014-Jul-25 16:32N 39°16' W 076°36'0 0.0
2014-Jul-25 15:32N 39°16' W 076°36'0 0.0
2014-Jul-25 14:29N 39°16' W 076°36'0 0.0
2014-Jul-25 13:32N 39°16' W 076°36'0 0.0
2014-Jul-25 12:32N 39°16' W 076°36'0 0.0
2014-Jul-25 11:29N 39°16' W 076°36'1 0.7
2014-Jul-25 10:34N 39°15' W 076°35'8 8.1
2014-Jul-25 09:33N 39°11' W 076°27'1212.4
2014-Jul-25 08:33N 38°59' W 076°23'1615.4
2014-Jul-25 07:33N 38°43' W 076°26'9215.3
2014-Jul-25 01:30N 37°12' W 076°09'1516.0
2014-Jul-25 00:33N 36°59' W 075°60'1111.2
2014-Jul-24 23:33N 36°51' W 075°49'27512.2
2014-Jul-24 01:00N 34°54' W 070°42'9814.1 210 / 261012.010.8 2.525.524.128.0
2014-Jul-23 18:00N 34°12' W 068°54'14813.4 220 / 161016.0 5.4 27.027.025.0
2014-Jul-23 07:00N 33°12' W 066°12'8412.0 260 / 111017.527.0 2.526.024.6
2014-Jul-23 00:00N 32°36' W 064°42'   280 / 131019.0 2.2 26.525.128.0
2014-Jul-19 06:32N 36°48' W 075°45'1616.2
2014-Jul-19 05:34N 36°58' W 075°60'1816.6
2014-Jul-19 04:28N 37°16' W 076°08'2118.1
2014-Jul-19 03:18N 37°37' W 076°05'1418.2
2014-Jul-19 02:31N 37°50' W 076°10'5718.8
2014-Jul-18 23:27N 38°46' W 076°25'1718.8
2014-Jul-18 22:33N 39°03' W 076°23'1212.4
2014-Jul-18 21:34N 39°13' W 076°32'4 3.4
2014-Jul-18 20:28N 39°16' W 076°36'0 0.0
2014-Jul-18 19:29N 39°16' W 076°36'0 0.0
2014-Jul-18 18:31N 39°16' W 076°36'0 0.0
2014-Jul-18 17:31N 39°16' W 076°36'0 0.0
2014-Jul-18 16:28N 39°16' W 076°36'0 0.0
2014-Jul-18 15:31N 39°16' W 076°36'0 0.0
2014-Jul-18 14:28N 39°16' W 076°36'0 0.0
2014-Jul-18 13:28N 39°16' W 076°36'0 0.0
2014-Jul-18 12:31N 39°16' W 076°36'0 0.0
2014-Jul-18 11:31N 39°16' W 076°36'0 0.3
2014-Jul-18 10:33N 39°16' W 076°36'9 8.9
2014-Jul-18 09:34N 39°11' W 076°26'1313.1
2014-Jul-18 08:33N 38°58' W 076°24'1414.0
2014-Jul-18 07:33N 38°44' W 076°26'9515.8
2014-Jul-18 01:32N 37°10' W 076°09'1615.9
2014-Jul-18 00:33N 36°57' W 075°58'1714.2
2014-Jul-17 23:19N 36°45' W 075°42'20513.3
2014-Jul-17 08:00N 33°24' W 076°30'9914.1 100 / 71007.810.8 2.524.021.130.0
2014-Jul-17 01:00N 32°06' W 077°42'32814.9 190 / 191008.0 5.4 1.026.024.630.0
2014-Jul-16 03:00N 26°48' W 079°12'4816.1 190 / 131012.010.8 27.025.030.0
2014-Jul-16 00:00N 26°12' W 078°36'   180 / 61012.010.8 27.025.630.0

Dump ship's entire track history